< < Back
Terminal Aerodrome Forecast


Current Version              Previous Versions:   1  2  3  4  5  6  7  8  9  

Terminal Aerodrome Forecast

589
FTUS42 KCAE 280042 AAA
TAFAGS
TAF AMD
KAGS 280042Z 2801/2824 24004KT P6SM SKC
     FM281300 25007KT P6SM FEW250
     FM281800 25010G15KT P6SM SCT060=



Latest METAR

471
SAUS70 KWBC 280400 RRI
MTRAGS
METAR KAGS 280353Z 23005KT 10SM CLR 29/22 A2999 RMK AO2 SLP152
T02890217


USA.gov is the U.S. government's official web portal to all federal, state and local government web resources and services.